sensor_id;sensor_type;location;lat;lon;timestamp;P1;durP1;ratioP1;P2;durP2;ratioP2
73632;SDS011;61927;50.080;14.418;2024-01-10T00:01:40;86.32;;;35.55;;
73632;SDS011;61927;50.080;14.418;2024-01-10T00:04:05;84.85;;;35.60;;
73632;SDS011;61927;50.080;14.418;2024-01-10T00:06:31;72.78;;;34.35;;
73632;SDS011;61927;50.080;14.418;2024-01-10T00:08:56;75.68;;;34.40;;
73632;SDS011;61927;50.080;14.418;2024-01-10T00:11:22;75.07;;;34.60;;
73632;SDS011;61927;50.080;14.418;2024-01-10T00:13:47;76.65;;;34.05;;
73632;SDS011;61927;50.080;14.418;2024-01-10T00:16:14;73.22;;;31.85;;
73632;SDS011;61927;50.080;14.418;2024-01-10T00:18:39;79.03;;;34.67;;
73632;SDS011;61927;50.080;14.418;2024-01-10T00:21:09;70.97;;;31.50;;
73632;SDS011;61927;50.080;14.418;2024-01-10T00:23:35;66.45;;;33.95;;
73632;SDS011;61927;50.080;14.418;2024-01-10T00:26:01;72.00;;;34.63;;
73632;SDS011;61927;50.080;14.418;2024-01-10T00:28:26;72.53;;;33.60;;
73632;SDS011;61927;50.080;14.418;2024-01-10T00:30:52;70.00;;;32.92;;
73632;SDS011;61927;50.080;14.418;2024-01-10T00:33:18;70.55;;;33.53;;
73632;SDS011;61927;50.080;14.418;2024-01-10T00:35:43;75.32;;;34.47;;
73632;SDS011;61927;50.080;14.418;2024-01-10T00:38:09;83.75;;;34.55;;
73632;SDS011;61927;50.080;14.418;2024-01-10T00:40:35;76.50;;;34.05;;
73632;SDS011;61927;50.080;14.418;2024-01-10T00:43:01;71.30;;;31.63;;
73632;SDS011;61927;50.080;14.418;2024-01-10T00:45:27;83.95;;;37.92;;
73632;SDS011;61927;50.080;14.418;2024-01-10T00:47:52;73.15;;;33.53;;
73632;SDS011;61927;50.080;14.418;2024-01-10T00:50:18;76.00;;;34.05;;
73632;SDS011;61927;50.080;14.418;2024-01-10T00:52:44;77.47;;;34.95;;
73632;SDS011;61927;50.080;14.418;2024-01-10T00:55:10;75.03;;;33.28;;
73632;SDS011;61927;50.080;14.418;2024-01-10T00:57:36;75.70;;;35.13;;
73632;SDS011;61927;50.080;14.418;2024-01-10T01:00:04;71.63;;;31.40;;
73632;SDS011;61927;50.080;14.418;2024-01-10T01:02:34;71.13;;;31.60;;
73632;SDS011;61927;50.080;14.418;2024-01-10T01:05:01;68.57;;;32.38;;
73632;SDS011;61927;50.080;14.418;2024-01-10T01:07:27;74.60;;;32.72;;
73632;SDS011;61927;50.080;14.418;2024-01-10T01:09:53;79.63;;;32.67;;
73632;SDS011;61927;50.080;14.418;2024-01-10T01:12:19;73.22;;;32.92;;
73632;SDS011;61927;50.080;14.418;2024-01-10T01:14:44;70.72;;;30.95;;
73632;SDS011;61927;50.080;14.418;2024-01-10T01:17:10;80.88;;;32.85;;
73632;SDS011;61927;50.080;14.418;2024-01-10T01:19:36;73.93;;;30.90;;
73632;SDS011;61927;50.080;14.418;2024-01-10T01:22:01;67.45;;;31.52;;
73632;SDS011;61927;50.080;14.418;2024-01-10T01:24:27;76.25;;;32.63;;
73632;SDS011;61927;50.080;14.418;2024-01-10T01:26:53;68.53;;;31.35;;
73632;SDS011;61927;50.080;14.418;2024-01-10T01:29:19;88.93;;;36.67;;
73632;SDS011;61927;50.080;14.418;2024-01-10T01:31:45;81.93;;;38.78;;
73632;SDS011;61927;50.080;14.418;2024-01-10T01:34:11;78.15;;;35.30;;
73632;SDS011;61927;50.080;14.418;2024-01-10T01:36:36;81.65;;;38.33;;
73632;SDS011;61927;50.080;14.418;2024-01-10T01:39:02;92.22;;;43.65;;
73632;SDS011;61927;50.080;14.418;2024-01-10T01:41:28;87.60;;;40.17;;
73632;SDS011;61927;50.080;14.418;2024-01-10T01:43:54;81.70;;;38.13;;
73632;SDS011;61927;50.080;14.418;2024-01-10T01:46:19;88.13;;;42.08;;
73632;SDS011;61927;50.080;14.418;2024-01-10T01:48:45;90.30;;;38.90;;
73632;SDS011;61927;50.080;14.418;2024-01-10T01:51:12;89.50;;;39.78;;
73632;SDS011;61927;50.080;14.418;2024-01-10T01:53:39;83.10;;;39.35;;
73632;SDS011;61927;50.080;14.418;2024-01-10T01:56:06;78.03;;;36.33;;
73632;SDS011;61927;50.080;14.418;2024-01-10T01:58:33;82.72;;;38.38;;
73632;SDS011;61927;50.080;14.418;2024-01-10T02:01:02;87.60;;;37.90;;
73632;SDS011;61927;50.080;14.418;2024-01-10T02:03:29;84.82;;;37.30;;
73632;SDS011;61927;50.080;14.418;2024-01-10T02:05:56;86.82;;;37.22;;
73632;SDS011;61927;50.080;14.418;2024-01-10T02:08:22;83.40;;;39.05;;
73632;SDS011;61927;50.080;14.418;2024-01-10T02:10:47;98.50;;;43.13;;
73632;SDS011;61927;50.080;14.418;2024-01-10T02:13:13;85.10;;;38.38;;
73632;SDS011;61927;50.080;14.418;2024-01-10T02:15:39;86.70;;;36.13;;
73632;SDS011;61927;50.080;14.418;2024-01-10T02:18:05;90.05;;;41.60;;
73632;SDS011;61927;50.080;14.418;2024-01-10T02:20:31;94.50;;;43.65;;
73632;SDS011;61927;50.080;14.418;2024-01-10T02:22:56;97.32;;;40.53;;
73632;SDS011;61927;50.080;14.418;2024-01-10T02:25:22;81.00;;;37.60;;
73632;SDS011;61927;50.080;14.418;2024-01-10T02:27:48;92.28;;;38.90;;
73632;SDS011;61927;50.080;14.418;2024-01-10T02:30:14;97.82;;;39.85;;
73632;SDS011;61927;50.080;14.418;2024-01-10T02:32:40;82.82;;;37.22;;
73632;SDS011;61927;50.080;14.418;2024-01-10T02:35:06;88.80;;;36.85;;
73632;SDS011;61927;50.080;14.418;2024-01-10T02:37:32;81.43;;;36.88;;
73632;SDS011;61927;50.080;14.418;2024-01-10T02:39:57;87.97;;;40.85;;
73632;SDS011;61927;50.080;14.418;2024-01-10T02:42:23;80.28;;;38.47;;
73632;SDS011;61927;50.080;14.418;2024-01-10T02:44:48;89.38;;;38.20;;
73632;SDS011;61927;50.080;14.418;2024-01-10T02:47:14;94.63;;;39.17;;
73632;SDS011;61927;50.080;14.418;2024-01-10T02:49:40;84.45;;;39.40;;
73632;SDS011;61927;50.080;14.418;2024-01-10T02:52:06;86.03;;;37.55;;
73632;SDS011;61927;50.080;14.418;2024-01-10T02:54:31;90.85;;;39.78;;
73632;SDS011;61927;50.080;14.418;2024-01-10T02:56:57;88.63;;;36.30;;
73632;SDS011;61927;50.080;14.418;2024-01-10T02:59:23;90.05;;;39.15;;
73632;SDS011;61927;50.080;14.418;2024-01-10T03:01:48;86.20;;;39.63;;
73632;SDS011;61927;50.080;14.418;2024-01-10T03:04:14;95.50;;;37.25;;
73632;SDS011;61927;50.080;14.418;2024-01-10T03:06:39;79.43;;;34.78;;
73632;SDS011;61927;50.080;14.418;2024-01-10T03:09:05;84.35;;;40.17;;
73632;SDS011;61927;50.080;14.418;2024-01-10T03:11:31;85.85;;;38.67;;
73632;SDS011;61927;50.080;14.418;2024-01-10T03:14:07;82.13;;;35.65;;
73632;SDS011;61927;50.080;14.418;2024-01-10T03:16:34;85.97;;;37.08;;
73632;SDS011;61927;50.080;14.418;2024-01-10T03:19:00;76.15;;;34.15;;
73632;SDS011;61927;50.080;14.418;2024-01-10T03:21:26;71.88;;;31.63;;
73632;SDS011;61927;50.080;14.418;2024-01-10T03:23:58;77.75;;;34.75;;
73632;SDS011;61927;50.080;14.418;2024-01-10T03:26:25;80.35;;;34.15;;
73632;SDS011;61927;50.080;14.418;2024-01-10T03:28:51;87.80;;;35.80;;
73632;SDS011;61927;50.080;14.418;2024-01-10T03:31:17;78.03;;;34.88;;
73632;SDS011;61927;50.080;14.418;2024-01-10T03:33:43;85.72;;;36.58;;
73632;SDS011;61927;50.080;14.418;2024-01-10T03:36:10;82.05;;;36.00;;
73632;SDS011;61927;50.080;14.418;2024-01-10T03:38:37;77.18;;;33.92;;
73632;SDS011;61927;50.080;14.418;2024-01-10T03:41:03;70.75;;;31.17;;
73632;SDS011;61927;50.080;14.418;2024-01-10T03:43:28;68.78;;;31.85;;
73632;SDS011;61927;50.080;14.418;2024-01-10T03:45:54;73.47;;;31.15;;
73632;SDS011;61927;50.080;14.418;2024-01-10T03:48:20;77.75;;;31.70;;
73632;SDS011;61927;50.080;14.418;2024-01-10T03:50:45;68.05;;;30.63;;
73632;SDS011;61927;50.080;14.418;2024-01-10T03:53:11;71.60;;;29.48;;
73632;SDS011;61927;50.080;14.418;2024-01-10T03:55:37;62.30;;;28.88;;
73632;SDS011;61927;50.080;14.418;2024-01-10T03:58:04;66.15;;;28.90;;
73632;SDS011;61927;50.080;14.418;2024-01-10T04:00:29;63.63;;;30.15;;
73632;SDS011;61927;50.080;14.418;2024-01-10T04:02:55;73.25;;;29.48;;
73632;SDS011;61927;50.080;14.418;2024-01-10T04:05:21;72.43;;;28.95;;
73632;SDS011;61927;50.080;14.418;2024-01-10T04:07:47;62.55;;;28.42;;
73632;SDS011;61927;50.080;14.418;2024-01-10T04:10:13;56.50;;;28.83;;
73632;SDS011;61927;50.080;14.418;2024-01-10T04:12:39;61.95;;;27.83;;
73632;SDS011;61927;50.080;14.418;2024-01-10T04:15:05;61.28;;;27.48;;
73632;SDS011;61927;50.080;14.418;2024-01-10T04:17:32;70.65;;;29.83;;
73632;SDS011;61927;50.080;14.418;2024-01-10T04:19:58;66.38;;;29.10;;
73632;SDS011;61927;50.080;14.418;2024-01-10T04:22:23;71.68;;;30.58;;
73632;SDS011;61927;50.080;14.418;2024-01-10T04:24:50;62.50;;;28.65;;
73632;SDS011;61927;50.080;14.418;2024-01-10T04:27:16;65.45;;;29.33;;
73632;SDS011;61927;50.080;14.418;2024-01-10T04:29:43;72.78;;;30.30;;
73632;SDS011;61927;50.080;14.418;2024-01-10T04:32:09;68.85;;;30.67;;
73632;SDS011;61927;50.080;14.418;2024-01-10T04:34:35;69.82;;;31.30;;
73632;SDS011;61927;50.080;14.418;2024-01-10T04:37:00;66.93;;;29.95;;
73632;SDS011;61927;50.080;14.418;2024-01-10T04:39:26;74.45;;;32.65;;
73632;SDS011;61927;50.080;14.418;2024-01-10T04:41:52;75.85;;;30.90;;
73632;SDS011;61927;50.080;14.418;2024-01-10T04:44:18;72.47;;;31.10;;
73632;SDS011;61927;50.080;14.418;2024-01-10T04:46:43;70.18;;;30.92;;
73632;SDS011;61927;50.080;14.418;2024-01-10T04:49:09;64.70;;;28.35;;
73632;SDS011;61927;50.080;14.418;2024-01-10T04:51:35;67.55;;;28.77;;
73632;SDS011;61927;50.080;14.418;2024-01-10T04:54:00;76.25;;;29.08;;
73632;SDS011;61927;50.080;14.418;2024-01-10T04:56:26;76.20;;;29.58;;
73632;SDS011;61927;50.080;14.418;2024-01-10T04:58:52;68.65;;;30.95;;
73632;SDS011;61927;50.080;14.418;2024-01-10T05:01:18;69.63;;;30.13;;
73632;SDS011;61927;50.080;14.418;2024-01-10T05:03:44;65.97;;;30.38;;
73632;SDS011;61927;50.080;14.418;2024-01-10T05:06:09;67.68;;;29.80;;
73632;SDS011;61927;50.080;14.418;2024-01-10T05:08:35;75.63;;;30.08;;
73632;SDS011;61927;50.080;14.418;2024-01-10T05:11:01;60.58;;;28.63;;
73632;SDS011;61927;50.080;14.418;2024-01-10T05:13:27;61.55;;;28.83;;
73632;SDS011;61927;50.080;14.418;2024-01-10T05:15:53;65.00;;;28.88;;
73632;SDS011;61927;50.080;14.418;2024-01-10T05:18:20;60.22;;;27.40;;
73632;SDS011;61927;50.080;14.418;2024-01-10T05:20:46;67.78;;;28.30;;
73632;SDS011;61927;50.080;14.418;2024-01-10T05:23:12;62.28;;;28.08;;
73632;SDS011;61927;50.080;14.418;2024-01-10T05:25:37;61.42;;;28.23;;
73632;SDS011;61927;50.080;14.418;2024-01-10T05:28:03;67.35;;;27.85;;
73632;SDS011;61927;50.080;14.418;2024-01-10T05:30:29;64.97;;;27.90;;
73632;SDS011;61927;50.080;14.418;2024-01-10T05:32:55;68.13;;;28.83;;
73632;SDS011;61927;50.080;14.418;2024-01-10T05:35:21;64.18;;;29.30;;
73632;SDS011;61927;50.080;14.418;2024-01-10T05:37:47;62.60;;;27.38;;
73632;SDS011;61927;50.080;14.418;2024-01-10T05:40:12;69.93;;;29.38;;
73632;SDS011;61927;50.080;14.418;2024-01-10T05:42:38;69.95;;;29.33;;
73632;SDS011;61927;50.080;14.418;2024-01-10T05:45:04;69.10;;;30.20;;
73632;SDS011;61927;50.080;14.418;2024-01-10T05:47:31;57.05;;;27.15;;
73632;SDS011;61927;50.080;14.418;2024-01-10T05:49:56;64.40;;;28.17;;
73632;SDS011;61927;50.080;14.418;2024-01-10T05:52:22;62.88;;;30.58;;
73632;SDS011;61927;50.080;14.418;2024-01-10T05:54:47;65.80;;;27.98;;
73632;SDS011;61927;50.080;14.418;2024-01-10T05:57:14;64.03;;;28.65;;
73632;SDS011;61927;50.080;14.418;2024-01-10T05:59:41;67.13;;;27.80;;
73632;SDS011;61927;50.080;14.418;2024-01-10T06:02:06;57.88;;;26.73;;
73632;SDS011;61927;50.080;14.418;2024-01-10T06:04:32;66.93;;;26.08;;
73632;SDS011;61927;50.080;14.418;2024-01-10T06:06:58;64.13;;;27.33;;
73632;SDS011;61927;50.080;14.418;2024-01-10T06:09:24;60.85;;;27.20;;
73632;SDS011;61927;50.080;14.418;2024-01-10T06:11:49;66.20;;;27.55;;
73632;SDS011;61927;50.080;14.418;2024-01-10T06:14:15;63.28;;;26.73;;
73632;SDS011;61927;50.080;14.418;2024-01-10T06:16:41;60.90;;;26.25;;
73632;SDS011;61927;50.080;14.418;2024-01-10T06:19:06;80.00;;;26.95;;
73632;SDS011;61927;50.080;14.418;2024-01-10T06:21:32;59.70;;;25.67;;
73632;SDS011;61927;50.080;14.418;2024-01-10T06:23:58;58.25;;;25.48;;
73632;SDS011;61927;50.080;14.418;2024-01-10T06:26:24;54.78;;;23.77;;
73632;SDS011;61927;50.080;14.418;2024-01-10T06:28:49;65.30;;;27.77;;
73632;SDS011;61927;50.080;14.418;2024-01-10T06:31:15;57.55;;;25.27;;
73632;SDS011;61927;50.080;14.418;2024-01-10T06:33:40;66.70;;;26.52;;
73632;SDS011;61927;50.080;14.418;2024-01-10T06:36:06;57.80;;;25.77;;
73632;SDS011;61927;50.080;14.418;2024-01-10T06:38:32;56.60;;;25.45;;
73632;SDS011;61927;50.080;14.418;2024-01-10T06:40:58;62.67;;;25.80;;
73632;SDS011;61927;50.080;14.418;2024-01-10T06:43:23;61.78;;;26.50;;
73632;SDS011;61927;50.080;14.418;2024-01-10T06:45:49;63.47;;;27.40;;
73632;SDS011;61927;50.080;14.418;2024-01-10T06:48:15;73.35;;;27.35;;
73632;SDS011;61927;50.080;14.418;2024-01-10T06:50:40;55.55;;;25.27;;
73632;SDS011;61927;50.080;14.418;2024-01-10T06:53:06;59.67;;;26.13;;
73632;SDS011;61927;50.080;14.418;2024-01-10T06:55:32;57.65;;;23.73;;
73632;SDS011;61927;50.080;14.418;2024-01-10T06:57:57;60.78;;;26.73;;
73632;SDS011;61927;50.080;14.418;2024-01-10T07:00:23;63.65;;;27.23;;
73632;SDS011;61927;50.080;14.418;2024-01-10T07:02:49;61.08;;;25.33;;
73632;SDS011;61927;50.080;14.418;2024-01-10T07:05:15;60.80;;;24.50;;
73632;SDS011;61927;50.080;14.418;2024-01-10T07:07:41;51.85;;;25.15;;
73632;SDS011;61927;50.080;14.418;2024-01-10T07:10:07;57.55;;;24.35;;
73632;SDS011;61927;50.080;14.418;2024-01-10T07:12:36;55.22;;;25.10;;
73632;SDS011;61927;50.080;14.418;2024-01-10T07:15:02;54.60;;;22.17;;
73632;SDS011;61927;50.080;14.418;2024-01-10T07:17:28;53.10;;;23.63;;
73632;SDS011;61927;50.080;14.418;2024-01-10T07:19:54;53.30;;;23.92;;
73632;SDS011;61927;50.080;14.418;2024-01-10T07:22:22;52.35;;;22.83;;
73632;SDS011;61927;50.080;14.418;2024-01-10T07:24:48;58.10;;;23.52;;
73632;SDS011;61927;50.080;14.418;2024-01-10T07:27:14;50.85;;;22.38;;
73632;SDS011;61927;50.080;14.418;2024-01-10T07:29:40;59.80;;;23.65;;
73632;SDS011;61927;50.080;14.418;2024-01-10T07:32:06;56.40;;;23.88;;
73632;SDS011;61927;50.080;14.418;2024-01-10T07:34:37;60.90;;;23.50;;
73632;SDS011;61927;50.080;14.418;2024-01-10T07:37:03;52.15;;;23.13;;
73632;SDS011;61927;50.080;14.418;2024-01-10T07:39:29;53.75;;;22.33;;
73632;SDS011;61927;50.080;14.418;2024-01-10T07:41:55;52.20;;;23.80;;
73632;SDS011;61927;50.080;14.418;2024-01-10T07:44:21;52.92;;;22.92;;
73632;SDS011;61927;50.080;14.418;2024-01-10T07:46:47;54.00;;;25.55;;
73632;SDS011;61927;50.080;14.418;2024-01-10T07:49:12;57.05;;;24.45;;
73632;SDS011;61927;50.080;14.418;2024-01-10T07:51:38;56.33;;;23.65;;
73632;SDS011;61927;50.080;14.418;2024-01-10T07:54:04;51.15;;;22.33;;
73632;SDS011;61927;50.080;14.418;2024-01-10T07:56:30;60.85;;;22.58;;
73632;SDS011;61927;50.080;14.418;2024-01-10T07:58:59;55.22;;;23.30;;
73632;SDS011;61927;50.080;14.418;2024-01-10T08:01:24;52.70;;;22.25;;
73632;SDS011;61927;50.080;14.418;2024-01-10T08:03:50;54.10;;;22.67;;
73632;SDS011;61927;50.080;14.418;2024-01-10T08:06:15;53.85;;;23.40;;
73632;SDS011;61927;50.080;14.418;2024-01-10T08:08:41;52.25;;;21.38;;
73632;SDS011;61927;50.080;14.418;2024-01-10T08:11:06;56.28;;;22.80;;
73632;SDS011;61927;50.080;14.418;2024-01-10T08:13:32;46.40;;;22.15;;
73632;SDS011;61927;50.080;14.418;2024-01-10T08:15:58;58.30;;;21.92;;
73632;SDS011;61927;50.080;14.418;2024-01-10T08:18:24;57.53;;;23.35;;
73632;SDS011;61927;50.080;14.418;2024-01-10T08:20:49;52.10;;;22.05;;
73632;SDS011;61927;50.080;14.418;2024-01-10T08:23:15;54.40;;;23.75;;
73632;SDS011;61927;50.080;14.418;2024-01-10T08:25:41;57.70;;;23.17;;
73632;SDS011;61927;50.080;14.418;2024-01-10T08:28:09;54.13;;;22.25;;
73632;SDS011;61927;50.080;14.418;2024-01-10T08:30:35;54.47;;;22.05;;
73632;SDS011;61927;50.080;14.418;2024-01-10T08:33:01;52.60;;;22.85;;
73632;SDS011;61927;50.080;14.418;2024-01-10T08:35:29;54.75;;;24.10;;
73632;SDS011;61927;50.080;14.418;2024-01-10T08:37:55;47.28;;;21.17;;
73632;SDS011;61927;50.080;14.418;2024-01-10T08:40:20;51.38;;;22.15;;
73632;SDS011;61927;50.080;14.418;2024-01-10T08:42:51;47.53;;;23.42;;
73632;SDS011;61927;50.080;14.418;2024-01-10T08:45:17;54.42;;;21.42;;
73632;SDS011;61927;50.080;14.418;2024-01-10T08:47:43;46.30;;;21.77;;
73632;SDS011;61927;50.080;14.418;2024-01-10T08:50:08;48.30;;;20.70;;
73632;SDS011;61927;50.080;14.418;2024-01-10T08:52:37;49.25;;;20.83;;
73632;SDS011;61927;50.080;14.418;2024-01-10T08:55:04;49.70;;;21.88;;
73632;SDS011;61927;50.080;14.418;2024-01-10T08:57:32;52.97;;;22.08;;
73632;SDS011;61927;50.080;14.418;2024-01-10T08:59:58;46.30;;;21.10;;
73632;SDS011;61927;50.080;14.418;2024-01-10T09:02:24;45.97;;;22.02;;
73632;SDS011;61927;50.080;14.418;2024-01-10T09:04:49;51.05;;;22.05;;
73632;SDS011;61927;50.080;14.418;2024-01-10T09:07:23;51.13;;;20.85;;
73632;SDS011;61927;50.080;14.418;2024-01-10T09:09:49;45.20;;;20.92;;
73632;SDS011;61927;50.080;14.418;2024-01-10T09:12:17;61.50;;;23.00;;
73632;SDS011;61927;50.080;14.418;2024-01-10T09:14:43;50.78;;;22.15;;
73632;SDS011;61927;50.080;14.418;2024-01-10T09:17:09;51.33;;;22.58;;
73632;SDS011;61927;50.080;14.418;2024-01-10T09:19:35;50.38;;;21.38;;
73632;SDS011;61927;50.080;14.418;2024-01-10T09:22:01;51.15;;;23.33;;
73632;SDS011;61927;50.080;14.418;2024-01-10T09:24:26;45.53;;;20.38;;
73632;SDS011;61927;50.080;14.418;2024-01-10T09:26:52;48.70;;;19.25;;
73632;SDS011;61927;50.080;14.418;2024-01-10T09:29:19;58.20;;;21.17;;
73632;SDS011;61927;50.080;14.418;2024-01-10T09:31:45;49.17;;;20.40;;
73632;SDS011;61927;50.080;14.418;2024-01-10T09:34:10;48.83;;;21.73;;
73632;SDS011;61927;50.080;14.418;2024-01-10T09:36:36;52.53;;;24.60;;
73632;SDS011;61927;50.080;14.418;2024-01-10T09:39:02;50.83;;;20.98;;
73632;SDS011;61927;50.080;14.418;2024-01-10T09:41:31;56.50;;;21.83;;
73632;SDS011;61927;50.080;14.418;2024-01-10T09:44:02;49.53;;;21.50;;
73632;SDS011;61927;50.080;14.418;2024-01-10T09:46:28;53.97;;;22.13;;
73632;SDS011;61927;50.080;14.418;2024-01-10T09:48:55;51.35;;;21.30;;
73632;SDS011;61927;50.080;14.418;2024-01-10T09:51:21;41.67;;;21.02;;
73632;SDS011;61927;50.080;14.418;2024-01-10T09:53:48;49.08;;;22.60;;
73632;SDS011;61927;50.080;14.418;2024-01-10T09:56:20;53.60;;;22.25;;
73632;SDS011;61927;50.080;14.418;2024-01-10T09:58:46;50.67;;;21.50;;
73632;SDS011;61927;50.080;14.418;2024-01-10T10:01:14;52.97;;;23.02;;
73632;SDS011;61927;50.080;14.418;2024-01-10T10:03:41;57.17;;;22.58;;
73632;SDS011;61927;50.080;14.418;2024-01-10T10:06:19;55.60;;;21.50;;
73632;SDS011;61927;50.080;14.418;2024-01-10T10:08:53;49.03;;;19.83;;
73632;SDS011;61927;50.080;14.418;2024-01-10T10:12:10;51.90;;;20.88;;
73632;SDS011;61927;50.080;14.418;2024-01-10T10:18:40;42.42;;;20.50;;
73632;SDS011;61927;50.080;14.418;2024-01-10T10:21:46;44.95;;;20.23;;
73632;SDS011;61927;50.080;14.418;2024-01-10T10:24:37;49.78;;;21.08;;
73632;SDS011;61927;50.080;14.418;2024-01-10T10:27:36;48.10;;;20.50;;
73632;SDS011;61927;50.080;14.418;2024-01-10T10:30:33;44.33;;;19.23;;
73632;SDS011;61927;50.080;14.418;2024-01-10T10:33:14;52.60;;;20.35;;
73632;SDS011;61927;50.080;14.418;2024-01-10T10:35:57;44.53;;;20.10;;
73632;SDS011;61927;50.080;14.418;2024-01-10T10:38:31;56.65;;;20.77;;
73632;SDS011;61927;50.080;14.418;2024-01-10T10:44:54;50.50;;;19.63;;
73632;SDS011;61927;50.080;14.418;2024-01-10T10:47:37;49.90;;;19.98;;
73632;SDS011;61927;50.080;14.418;2024-01-10T10:53:56;46.63;;;20.50;;
73632;SDS011;61927;50.080;14.418;2024-01-10T10:57:09;51.72;;;21.50;;
73632;SDS011;61927;50.080;14.418;2024-01-10T11:00:06;52.60;;;20.65;;
73632;SDS011;61927;50.080;14.418;2024-01-10T11:06:00;51.50;;;21.95;;
73632;SDS011;61927;50.080;14.418;2024-01-10T11:08:45;48.78;;;21.30;;
73632;SDS011;61927;50.080;14.418;2024-01-10T11:27:40;45.65;;;21.55;;
73632;SDS011;61927;50.080;14.418;2024-01-10T11:36:17;41.33;;;19.35;;
73632;SDS011;61927;50.080;14.418;2024-01-10T11:39:20;45.30;;;20.25;;
73632;SDS011;61927;50.080;14.418;2024-01-10T11:41:49;47.42;;;20.30;;
73632;SDS011;61927;50.080;14.418;2024-01-10T11:44:33;52.88;;;21.27;;
73632;SDS011;61927;50.080;14.418;2024-01-10T11:48:02;46.50;;;21.05;;
73632;SDS011;61927;50.080;14.418;2024-01-10T11:51:04;46.03;;;22.38;;
73632;SDS011;61927;50.080;14.418;2024-01-10T11:55:12;42.80;;;19.27;;
73632;SDS011;61927;50.080;14.418;2024-01-10T11:58:10;37.25;;;19.42;;
73632;SDS011;61927;50.080;14.418;2024-01-10T12:00:35;44.80;;;21.30;;
73632;SDS011;61927;50.080;14.418;2024-01-10T12:03:02;48.42;;;21.42;;
73632;SDS011;61927;50.080;14.418;2024-01-10T12:05:29;43.58;;;20.75;;
73632;SDS011;61927;50.080;14.418;2024-01-10T12:07:55;46.28;;;19.90;;
73632;SDS011;61927;50.080;14.418;2024-01-10T12:10:21;50.45;;;19.92;;
73632;SDS011;61927;50.080;14.418;2024-01-10T12:13:00;46.28;;;18.95;;
73632;SDS011;61927;50.080;14.418;2024-01-10T12:16:17;37.17;;;18.52;;
73632;SDS011;61927;50.080;14.418;2024-01-10T12:19:21;52.08;;;19.50;;
73632;SDS011;61927;50.080;14.418;2024-01-10T12:22:55;41.58;;;18.77;;
73632;SDS011;61927;50.080;14.418;2024-01-10T12:29:35;42.38;;;18.50;;
73632;SDS011;61927;50.080;14.418;2024-01-10T12:33:01;46.03;;;19.42;;
73632;SDS011;61927;50.080;14.418;2024-01-10T12:36:41;40.22;;;19.67;;
73632;SDS011;61927;50.080;14.418;2024-01-10T12:43:34;51.50;;;18.63;;
73632;SDS011;61927;50.080;14.418;2024-01-10T12:46:13;50.10;;;19.05;;
73632;SDS011;61927;50.080;14.418;2024-01-10T12:48:57;38.40;;;18.55;;
73632;SDS011;61927;50.080;14.418;2024-01-10T12:52:29;44.35;;;18.45;;
73632;SDS011;61927;50.080;14.418;2024-01-10T12:55:50;40.67;;;17.30;;
73632;SDS011;61927;50.080;14.418;2024-01-10T12:59:18;43.67;;;19.58;;
73632;SDS011;61927;50.080;14.418;2024-01-10T13:02:39;43.38;;;19.23;;
73632;SDS011;61927;50.080;14.418;2024-01-10T13:05:25;34.50;;;17.38;;
73632;SDS011;61927;50.080;14.418;2024-01-10T13:08:25;45.72;;;16.92;;
73632;SDS011;61927;50.080;14.418;2024-01-10T13:11:00;45.85;;;17.63;;
73632;SDS011;61927;50.080;14.418;2024-01-10T13:14:17;39.95;;;18.65;;
73632;SDS011;61927;50.080;14.418;2024-01-10T13:17:22;43.05;;;18.15;;
73632;SDS011;61927;50.080;14.418;2024-01-10T13:19:57;36.25;;;17.48;;
73632;SDS011;61927;50.080;14.418;2024-01-10T13:23:09;45.00;;;20.17;;
73632;SDS011;61927;50.080;14.418;2024-01-10T13:26:07;41.15;;;16.38;;
73632;SDS011;61927;50.080;14.418;2024-01-10T13:28:47;36.90;;;17.35;;
73632;SDS011;61927;50.080;14.418;2024-01-10T13:31:30;47.20;;;20.10;;
73632;SDS011;61927;50.080;14.418;2024-01-10T13:34:16;33.65;;;16.67;;
73632;SDS011;61927;50.080;14.418;2024-01-10T13:36:50;39.95;;;19.85;;
73632;SDS011;61927;50.080;14.418;2024-01-10T13:39:27;44.15;;;20.23;;
73632;SDS011;61927;50.080;14.418;2024-01-10T13:42:23;38.92;;;17.38;;
73632;SDS011;61927;50.080;14.418;2024-01-10T13:44:49;34.95;;;17.48;;
73632;SDS011;61927;50.080;14.418;2024-01-10T13:47:17;37.80;;;16.75;;
73632;SDS011;61927;50.080;14.418;2024-01-10T13:49:43;38.67;;;16.63;;
73632;SDS011;61927;50.080;14.418;2024-01-10T13:52:57;30.95;;;16.02;;
73632;SDS011;61927;50.080;14.418;2024-01-10T13:55:35;30.88;;;15.43;;
73632;SDS011;61927;50.080;14.418;2024-01-10T13:58:35;40.65;;;16.92;;
73632;SDS011;61927;50.080;14.418;2024-01-10T14:01:25;31.83;;;15.23;;
73632;SDS011;61927;50.080;14.418;2024-01-10T14:04:19;37.78;;;16.08;;
73632;SDS011;61927;50.080;14.418;2024-01-10T14:07:15;28.08;;;14.32;;
73632;SDS011;61927;50.080;14.418;2024-01-10T14:10:29;31.52;;;15.20;;
73632;SDS011;61927;50.080;14.418;2024-01-10T14:13:49;36.75;;;15.32;;
73632;SDS011;61927;50.080;14.418;2024-01-10T14:16:18;24.58;;;14.10;;
73632;SDS011;61927;50.080;14.418;2024-01-10T14:19:11;32.08;;;14.90;;
73632;SDS011;61927;50.080;14.418;2024-01-10T14:21:56;31.75;;;14.05;;
73632;SDS011;61927;50.080;14.418;2024-01-10T14:24:32;31.17;;;14.73;;
73632;SDS011;61927;50.080;14.418;2024-01-10T14:27:46;29.75;;;14.20;;
73632;SDS011;61927;50.080;14.418;2024-01-10T14:31:02;25.35;;;13.93;;
73632;SDS011;61927;50.080;14.418;2024-01-10T14:33:44;35.35;;;16.58;;
73632;SDS011;61927;50.080;14.418;2024-01-10T14:36:46;35.97;;;18.73;;
73632;SDS011;61927;50.080;14.418;2024-01-10T14:39:14;31.30;;;15.23;;
73632;SDS011;61927;50.080;14.418;2024-01-10T14:42:07;39.38;;;19.20;;
73632;SDS011;61927;50.080;14.418;2024-01-10T14:44:34;47.03;;;15.98;;
73632;SDS011;61927;50.080;14.418;2024-01-10T14:47:00;35.90;;;16.13;;
73632;SDS011;61927;50.080;14.418;2024-01-10T14:49:26;52.08;;;19.02;;
73632;SDS011;61927;50.080;14.418;2024-01-10T14:51:52;36.40;;;16.45;;
73632;SDS011;61927;50.080;14.418;2024-01-10T14:54:17;30.75;;;14.82;;
73632;SDS011;61927;50.080;14.418;2024-01-10T14:56:44;26.52;;;15.20;;
73632;SDS011;61927;50.080;14.418;2024-01-10T14:59:10;31.52;;;16.35;;
73632;SDS011;61927;50.080;14.418;2024-01-10T15:01:37;28.85;;;14.70;;
73632;SDS011;61927;50.080;14.418;2024-01-10T15:04:07;35.63;;;15.30;;
73632;SDS011;61927;50.080;14.418;2024-01-10T15:06:32;33.50;;;14.65;;
73632;SDS011;61927;50.080;14.418;2024-01-10T15:08:58;31.67;;;15.45;;
73632;SDS011;61927;50.080;14.418;2024-01-10T15:11:24;33.20;;;14.57;;
73632;SDS011;61927;50.080;14.418;2024-01-10T15:13:50;31.77;;;14.45;;
73632;SDS011;61927;50.080;14.418;2024-01-10T15:16:16;31.48;;;15.07;;
73632;SDS011;61927;50.080;14.418;2024-01-10T15:18:42;34.50;;;15.15;;
73632;SDS011;61927;50.080;14.418;2024-01-10T15:21:08;35.20;;;15.88;;
73632;SDS011;61927;50.080;14.418;2024-01-10T15:23:33;32.15;;;15.27;;